sensor_id;sensor_type;location;lat;lon;timestamp;temperature;humidity
37642;DHT22;23486;51.956;5.888;2023-12-14T00:01:12;6.50;99.90
37642;DHT22;23486;51.956;5.888;2023-12-14T00:03:39;6.50;99.90
37642;DHT22;23486;51.956;5.888;2023-12-14T00:06:10;6.50;99.90
37642;DHT22;23486;51.956;5.888;2023-12-14T00:08:36;6.50;99.90
37642;DHT22;23486;51.956;5.888;2023-12-14T00:11:08;6.40;99.90
37642;DHT22;23486;51.956;5.888;2023-12-14T00:13:35;6.40;99.90
37642;DHT22;23486;51.956;5.888;2023-12-14T00:16:01;6.30;99.90
37642;DHT22;23486;51.956;5.888;2023-12-14T00:18:26;6.30;99.90
37642;DHT22;23486;51.956;5.888;2023-12-14T00:20:52;6.30;99.90
37642;DHT22;23486;51.956;5.888;2023-12-14T00:23:19;6.30;99.90
37642;DHT22;23486;51.956;5.888;2023-12-14T00:25:45;6.30;99.90
37642;DHT22;23486;51.956;5.888;2023-12-14T00:28:11;6.30;99.90
37642;DHT22;23486;51.956;5.888;2023-12-14T00:30:36;6.20;99.90
37642;DHT22;23486;51.956;5.888;2023-12-14T00:33:02;6.20;99.90
37642;DHT22;23486;51.956;5.888;2023-12-14T00:35:27;6.20;99.90
37642;DHT22;23486;51.956;5.888;2023-12-14T00:37:53;6.10;99.90
37642;DHT22;23486;51.956;5.888;2023-12-14T00:40:18;6.10;99.90
37642;DHT22;23486;51.956;5.888;2023-12-14T00:42:44;6.10;99.90
37642;DHT22;23486;51.956;5.888;2023-12-14T00:45:10;6.00;99.90
37642;DHT22;23486;51.956;5.888;2023-12-14T00:47:35;6.00;99.90
37642;DHT22;23486;51.956;5.888;2023-12-14T00:50:01;6.00;99.90
37642;DHT22;23486;51.956;5.888;2023-12-14T00:52:27;6.00;99.90
37642;DHT22;23486;51.956;5.888;2023-12-14T00:54:53;6.00;99.90
37642;DHT22;23486;51.956;5.888;2023-12-14T00:57:18;6.00;99.90
37642;DHT22;23486;51.956;5.888;2023-12-14T00:59:44;6.00;99.90
37642;DHT22;23486;51.956;5.888;2023-12-14T01:02:09;6.00;99.90
37642;DHT22;23486;51.956;5.888;2023-12-14T01:04:35;6.00;99.90
37642;DHT22;23486;51.956;5.888;2023-12-14T01:07:01;6.10;99.90
37642;DHT22;23486;51.956;5.888;2023-12-14T01:09:26;6.10;99.90
37642;DHT22;23486;51.956;5.888;2023-12-14T01:11:52;6.00;99.90
37642;DHT22;23486;51.956;5.888;2023-12-14T01:14:18;6.00;99.90
37642;DHT22;23486;51.956;5.888;2023-12-14T01:16:43;6.00;99.90
37642;DHT22;23486;51.956;5.888;2023-12-14T01:19:09;6.00;99.90
37642;DHT22;23486;51.956;5.888;2023-12-14T01:21:34;5.90;99.90
37642;DHT22;23486;51.956;5.888;2023-12-14T01:24:00;5.90;99.90
37642;DHT22;23486;51.956;5.888;2023-12-14T01:26:26;5.90;99.90
37642;DHT22;23486;51.956;5.888;2023-12-14T01:28:52;5.90;99.90
37642;DHT22;23486;51.956;5.888;2023-12-14T01:31:18;5.90;99.90
37642;DHT22;23486;51.956;5.888;2023-12-14T01:33:44;6.00;99.90
37642;DHT22;23486;51.956;5.888;2023-12-14T01:36:11;6.00;99.90
37642;DHT22;23486;51.956;5.888;2023-12-14T01:38:37;6.00;99.90
37642;DHT22;23486;51.956;5.888;2023-12-14T01:41:03;6.00;99.90
37642;DHT22;23486;51.956;5.888;2023-12-14T01:43:29;6.00;99.90
37642;DHT22;23486;51.956;5.888;2023-12-14T01:45:54;6.00;99.90
37642;DHT22;23486;51.956;5.888;2023-12-14T01:48:20;6.00;99.90
37642;DHT22;23486;51.956;5.888;2023-12-14T01:50:45;6.00;99.90
37642;DHT22;23486;51.956;5.888;2023-12-14T01:53:11;6.00;99.90
37642;DHT22;23486;51.956;5.888;2023-12-14T01:55:36;6.00;99.90
37642;DHT22;23486;51.956;5.888;2023-12-14T01:58:02;6.00;99.90
37642;DHT22;23486;51.956;5.888;2023-12-14T02:00:56;5.90;99.90
37642;DHT22;23486;51.956;5.888;2023-12-14T02:03:23;5.90;99.90
37642;DHT22;23486;51.956;5.888;2023-12-14T02:05:49;5.90;99.90
37642;DHT22;23486;51.956;5.888;2023-12-14T02:08:15;6.00;99.90
37642;DHT22;23486;51.956;5.888;2023-12-14T02:10:40;5.90;99.90
37642;DHT22;23486;51.956;5.888;2023-12-14T02:13:06;5.90;99.90
37642;DHT22;23486;51.956;5.888;2023-12-14T02:15:32;5.90;99.90
37642;DHT22;23486;51.956;5.888;2023-12-14T02:17:58;5.90;99.90
37642;DHT22;23486;51.956;5.888;2023-12-14T02:20:24;5.90;99.90
37642;DHT22;23486;51.956;5.888;2023-12-14T02:22:56;5.90;99.90
37642;DHT22;23486;51.956;5.888;2023-12-14T02:25:22;5.90;99.90
37642;DHT22;23486;51.956;5.888;2023-12-14T02:27:49;5.90;99.90
37642;DHT22;23486;51.956;5.888;2023-12-14T02:30:17;5.90;99.90
37642;DHT22;23486;51.956;5.888;2023-12-14T02:32:42;5.90;99.90
37642;DHT22;23486;51.956;5.888;2023-12-14T02:35:11;5.90;99.90
37642;DHT22;23486;51.956;5.888;2023-12-14T02:37:37;5.90;99.90
37642;DHT22;23486;51.956;5.888;2023-12-14T02:40:04;5.90;99.90
37642;DHT22;23486;51.956;5.888;2023-12-14T02:42:30;5.90;99.90
37642;DHT22;23486;51.956;5.888;2023-12-14T02:44:56;5.90;99.90
37642;DHT22;23486;51.956;5.888;2023-12-14T02:47:22;5.80;99.90
37642;DHT22;23486;51.956;5.888;2023-12-14T02:49:48;5.90;99.90
37642;DHT22;23486;51.956;5.888;2023-12-14T02:52:14;5.80;99.90
37642;DHT22;23486;51.956;5.888;2023-12-14T02:54:40;5.80;99.90
37642;DHT22;23486;51.956;5.888;2023-12-14T02:57:06;5.80;99.90
37642;DHT22;23486;51.956;5.888;2023-12-14T02:59:31;5.80;99.90
37642;DHT22;23486;51.956;5.888;2023-12-14T03:01:57;5.90;99.90
37642;DHT22;23486;51.956;5.888;2023-12-14T03:04:22;5.80;99.90
37642;DHT22;23486;51.956;5.888;2023-12-14T03:06:48;5.80;99.90
37642;DHT22;23486;51.956;5.888;2023-12-14T03:09:14;5.80;99.90
37642;DHT22;23486;51.956;5.888;2023-12-14T03:11:39;5.80;99.90
37642;DHT22;23486;51.956;5.888;2023-12-14T03:14:05;5.80;99.90
37642;DHT22;23486;51.956;5.888;2023-12-14T03:16:31;5.80;99.90
37642;DHT22;23486;51.956;5.888;2023-12-14T03:18:56;5.70;99.90
37642;DHT22;23486;51.956;5.888;2023-12-14T03:21:22;5.70;99.90
37642;DHT22;23486;51.956;5.888;2023-12-14T03:23:49;5.70;99.90
37642;DHT22;23486;51.956;5.888;2023-12-14T03:26:15;5.70;99.90
37642;DHT22;23486;51.956;5.888;2023-12-14T03:28:40;5.80;99.90
37642;DHT22;23486;51.956;5.888;2023-12-14T03:31:06;5.70;99.90
37642;DHT22;23486;51.956;5.888;2023-12-14T03:33:32;5.70;99.90
37642;DHT22;23486;51.956;5.888;2023-12-14T03:35:57;5.80;99.90
37642;DHT22;23486;51.956;5.888;2023-12-14T03:38:23;5.80;99.90
37642;DHT22;23486;51.956;5.888;2023-12-14T03:40:49;5.80;99.90
37642;DHT22;23486;51.956;5.888;2023-12-14T03:43:14;5.80;99.90
37642;DHT22;23486;51.956;5.888;2023-12-14T03:45:40;5.70;99.90
37642;DHT22;23486;51.956;5.888;2023-12-14T03:48:05;5.80;99.90
37642;DHT22;23486;51.956;5.888;2023-12-14T03:50:31;5.70;99.90
37642;DHT22;23486;51.956;5.888;2023-12-14T03:52:58;5.70;99.90
37642;DHT22;23486;51.956;5.888;2023-12-14T03:55:24;5.70;99.90
37642;DHT22;23486;51.956;5.888;2023-12-14T03:57:50;5.70;99.90
37642;DHT22;23486;51.956;5.888;2023-12-14T04:00:16;5.70;99.90
37642;DHT22;23486;51.956;5.888;2023-12-14T04:02:42;5.70;99.90
37642;DHT22;23486;51.956;5.888;2023-12-14T04:05:08;5.70;99.90
37642;DHT22;23486;51.956;5.888;2023-12-14T04:07:38;5.70;99.90
37642;DHT22;23486;51.956;5.888;2023-12-14T04:10:07;5.70;99.90
37642;DHT22;23486;51.956;5.888;2023-12-14T04:12:34;5.70;99.90
37642;DHT22;23486;51.956;5.888;2023-12-14T04:15:00;5.70;99.90
37642;DHT22;23486;51.956;5.888;2023-12-14T04:17:26;5.70;99.90
37642;DHT22;23486;51.956;5.888;2023-12-14T04:19:51;5.70;99.90
37642;DHT22;23486;51.956;5.888;2023-12-14T04:22:17;5.70;99.90
37642;DHT22;23486;51.956;5.888;2023-12-14T04:24:42;5.80;99.90
37642;DHT22;23486;51.956;5.888;2023-12-14T04:27:08;5.70;99.90
37642;DHT22;23486;51.956;5.888;2023-12-14T04:29:33;5.80;99.90
37642;DHT22;23486;51.956;5.888;2023-12-14T04:31:59;5.80;99.90
37642;DHT22;23486;51.956;5.888;2023-12-14T04:34:24;5.80;99.90
37642;DHT22;23486;51.956;5.888;2023-12-14T04:36:50;5.80;99.90
37642;DHT22;23486;51.956;5.888;2023-12-14T04:39:16;5.80;99.90
37642;DHT22;23486;51.956;5.888;2023-12-14T04:41:42;5.80;99.90
37642;DHT22;23486;51.956;5.888;2023-12-14T04:44:08;5.80;99.90
37642;DHT22;23486;51.956;5.888;2023-12-14T04:46:35;5.80;99.90
37642;DHT22;23486;51.956;5.888;2023-12-14T04:49:01;5.80;99.90
37642;DHT22;23486;51.956;5.888;2023-12-14T04:51:26;5.80;99.90
37642;DHT22;23486;51.956;5.888;2023-12-14T04:53:52;5.80;99.90
37642;DHT22;23486;51.956;5.888;2023-12-14T04:56:17;5.80;99.90
37642;DHT22;23486;51.956;5.888;2023-12-14T04:58:43;5.80;99.90
37642;DHT22;23486;51.956;5.888;2023-12-14T05:01:08;5.80;99.90
37642;DHT22;23486;51.956;5.888;2023-12-14T05:03:37;5.80;99.90
37642;DHT22;23486;51.956;5.888;2023-12-14T05:06:03;5.80;99.90
37642;DHT22;23486;51.956;5.888;2023-12-14T05:08:28;5.80;99.90
37642;DHT22;23486;51.956;5.888;2023-12-14T05:10:54;5.80;99.90
37642;DHT22;23486;51.956;5.888;2023-12-14T05:13:19;5.80;99.90
37642;DHT22;23486;51.956;5.888;2023-12-14T05:15:45;5.70;99.90
37642;DHT22;23486;51.956;5.888;2023-12-14T05:18:11;5.80;99.90
37642;DHT22;23486;51.956;5.888;2023-12-14T05:20:36;5.80;99.90
37642;DHT22;23486;51.956;5.888;2023-12-14T05:23:02;5.80;99.90
37642;DHT22;23486;51.956;5.888;2023-12-14T05:25:28;5.80;99.90
37642;DHT22;23486;51.956;5.888;2023-12-14T05:27:53;5.80;99.90
37642;DHT22;23486;51.956;5.888;2023-12-14T05:30:19;5.80;99.90
37642;DHT22;23486;51.956;5.888;2023-12-14T05:32:45;5.70;99.90
37642;DHT22;23486;51.956;5.888;2023-12-14T05:35:11;5.70;99.90
37642;DHT22;23486;51.956;5.888;2023-12-14T05:37:38;5.70;99.90
37642;DHT22;23486;51.956;5.888;2023-12-14T05:40:04;5.70;99.90
37642;DHT22;23486;51.956;5.888;2023-12-14T05:42:30;5.70;99.90
37642;DHT22;23486;51.956;5.888;2023-12-14T05:44:55;5.70;99.90
37642;DHT22;23486;51.956;5.888;2023-12-14T05:47:21;5.70;99.90
37642;DHT22;23486;51.956;5.888;2023-12-14T05:49:46;5.70;99.90
37642;DHT22;23486;51.956;5.888;2023-12-14T05:52:12;5.70;99.90
37642;DHT22;23486;51.956;5.888;2023-12-14T05:54:38;5.70;99.90
37642;DHT22;23486;51.956;5.888;2023-12-14T05:57:05;5.70;99.90
37642;DHT22;23486;51.956;5.888;2023-12-14T05:59:31;5.70;99.90
37642;DHT22;23486;51.956;5.888;2023-12-14T06:02:00;5.70;99.90
37642;DHT22;23486;51.956;5.888;2023-12-14T06:04:27;5.60;99.90
37642;DHT22;23486;51.956;5.888;2023-12-14T06:06:53;5.60;99.90
37642;DHT22;23486;51.956;5.888;2023-12-14T06:09:19;5.70;99.90
37642;DHT22;23486;51.956;5.888;2023-12-14T06:11:50;5.70;99.90
37642;DHT22;23486;51.956;5.888;2023-12-14T06:14:16;5.60;99.90
37642;DHT22;23486;51.956;5.888;2023-12-14T06:16:42;5.60;99.90
37642;DHT22;23486;51.956;5.888;2023-12-14T06:19:07;5.60;99.90
37642;DHT22;23486;51.956;5.888;2023-12-14T06:21:33;5.60;99.90
37642;DHT22;23486;51.956;5.888;2023-12-14T06:23:59;5.60;99.90
37642;DHT22;23486;51.956;5.888;2023-12-14T06:26:25;5.60;99.90
37642;DHT22;23486;51.956;5.888;2023-12-14T06:28:51;5.60;99.90
37642;DHT22;23486;51.956;5.888;2023-12-14T06:31:17;5.70;99.90
37642;DHT22;23486;51.956;5.888;2023-12-14T06:33:43;5.60;99.90
37642;DHT22;23486;51.956;5.888;2023-12-14T06:36:09;5.60;99.90
37642;DHT22;23486;51.956;5.888;2023-12-14T06:38:38;5.60;99.90
37642;DHT22;23486;51.956;5.888;2023-12-14T06:41:04;5.60;99.90
37642;DHT22;23486;51.956;5.888;2023-12-14T06:43:29;5.60;99.90
37642;DHT22;23486;51.956;5.888;2023-12-14T06:45:55;5.60;99.90
37642;DHT22;23486;51.956;5.888;2023-12-14T06:48:21;5.60;99.90
37642;DHT22;23486;51.956;5.888;2023-12-14T06:50:46;5.60;99.90
37642;DHT22;23486;51.956;5.888;2023-12-14T06:53:12;5.60;99.90
37642;DHT22;23486;51.956;5.888;2023-12-14T06:55:38;5.60;99.90
37642;DHT22;23486;51.956;5.888;2023-12-14T06:58:04;5.60;99.90
37642;DHT22;23486;51.956;5.888;2023-12-14T07:00:34;5.60;99.90
37642;DHT22;23486;51.956;5.888;2023-12-14T07:02:59;5.60;99.90
37642;DHT22;23486;51.956;5.888;2023-12-14T07:05:25;5.50;99.90
37642;DHT22;23486;51.956;5.888;2023-12-14T07:07:51;5.50;99.90
37642;DHT22;23486;51.956;5.888;2023-12-14T07:10:16;5.50;99.90
37642;DHT22;23486;51.956;5.888;2023-12-14T07:12:42;5.50;99.90
37642;DHT22;23486;51.956;5.888;2023-12-14T07:15:08;5.40;99.90
37642;DHT22;23486;51.956;5.888;2023-12-14T07:17:33;5.40;99.90
37642;DHT22;23486;51.956;5.888;2023-12-14T07:19:59;5.40;99.90
37642;DHT22;23486;51.956;5.888;2023-12-14T07:22:25;5.40;99.90
37642;DHT22;23486;51.956;5.888;2023-12-14T07:24:50;5.40;99.90
37642;DHT22;23486;51.956;5.888;2023-12-14T07:27:16;5.40;99.90
37642;DHT22;23486;51.956;5.888;2023-12-14T07:29:41;5.40;99.90
37642;DHT22;23486;51.956;5.888;2023-12-14T07:32:07;5.40;99.90
37642;DHT22;23486;51.956;5.888;2023-12-14T07:34:32;5.40;99.90
37642;DHT22;23486;51.956;5.888;2023-12-14T07:36:58;5.30;99.90
37642;DHT22;23486;51.956;5.888;2023-12-14T07:39:23;5.30;99.90
37642;DHT22;23486;51.956;5.888;2023-12-14T07:41:49;5.30;99.90
37642;DHT22;23486;51.956;5.888;2023-12-14T07:44:14;5.30;99.90
37642;DHT22;23486;51.956;5.888;2023-12-14T07:46:40;5.30;99.90
37642;DHT22;23486;51.956;5.888;2023-12-14T07:49:07;5.30;99.90
37642;DHT22;23486;51.956;5.888;2023-12-14T07:51:33;5.30;99.90
37642;DHT22;23486;51.956;5.888;2023-12-14T07:53:59;5.30;99.90
37642;DHT22;23486;51.956;5.888;2023-12-14T07:56:24;5.30;99.90
37642;DHT22;23486;51.956;5.888;2023-12-14T07:58:53;5.30;99.90
37642;DHT22;23486;51.956;5.888;2023-12-14T08:01:19;5.30;99.90
37642;DHT22;23486;51.956;5.888;2023-12-14T08:03:45;5.30;99.90
37642;DHT22;23486;51.956;5.888;2023-12-14T08:06:11;5.30;99.90
37642;DHT22;23486;51.956;5.888;2023-12-14T08:08:37;5.20;99.90
37642;DHT22;23486;51.956;5.888;2023-12-14T08:11:03;5.20;99.90
37642;DHT22;23486;51.956;5.888;2023-12-14T08:13:30;5.30;99.90
37642;DHT22;23486;51.956;5.888;2023-12-14T08:15:55;5.20;99.90
37642;DHT22;23486;51.956;5.888;2023-12-14T08:18:21;5.20;99.90
37642;DHT22;23486;51.956;5.888;2023-12-14T08:20:46;5.20;99.90
37642;DHT22;23486;51.956;5.888;2023-12-14T08:23:12;5.20;99.90
37642;DHT22;23486;51.956;5.888;2023-12-14T08:25:37;5.20;99.90
37642;DHT22;23486;51.956;5.888;2023-12-14T08:28:03;5.20;99.90
37642;DHT22;23486;51.956;5.888;2023-12-14T08:30:29;5.30;99.90
37642;DHT22;23486;51.956;5.888;2023-12-14T08:32:54;5.30;99.90
37642;DHT22;23486;51.956;5.888;2023-12-14T08:35:21;5.30;99.90
37642;DHT22;23486;51.956;5.888;2023-12-14T08:37:47;5.30;99.90
37642;DHT22;23486;51.956;5.888;2023-12-14T08:40:12;5.30;99.90
37642;DHT22;23486;51.956;5.888;2023-12-14T08:42:38;5.30;99.90
37642;DHT22;23486;51.956;5.888;2023-12-14T08:45:04;5.40;99.90
37642;DHT22;23486;51.956;5.888;2023-12-14T08:47:29;5.30;99.90
37642;DHT22;23486;51.956;5.888;2023-12-14T08:49:55;5.40;99.90
37642;DHT22;23486;51.956;5.888;2023-12-14T08:52:20;5.40;99.90
37642;DHT22;23486;51.956;5.888;2023-12-14T08:54:49;5.40;99.90
37642;DHT22;23486;51.956;5.888;2023-12-14T08:57:15;5.40;99.90
37642;DHT22;23486;51.956;5.888;2023-12-14T08:59:40;5.40;99.90
37642;DHT22;23486;51.956;5.888;2023-12-14T09:02:06;5.40;99.90
37642;DHT22;23486;51.956;5.888;2023-12-14T09:04:31;5.40;99.90
37642;DHT22;23486;51.956;5.888;2023-12-14T09:06:57;5.40;99.90
37642;DHT22;23486;51.956;5.888;2023-12-14T09:09:22;5.40;99.90
37642;DHT22;23486;51.956;5.888;2023-12-14T09:11:48;5.40;99.90
37642;DHT22;23486;51.956;5.888;2023-12-14T09:14:14;5.40;99.90
37642;DHT22;23486;51.956;5.888;2023-12-14T09:16:39;5.50;99.90
37642;DHT22;23486;51.956;5.888;2023-12-14T09:19:05;5.40;99.90
37642;DHT22;23486;51.956;5.888;2023-12-14T09:21:31;5.50;99.90
37642;DHT22;23486;51.956;5.888;2023-12-14T09:23:57;5.50;99.90
37642;DHT22;23486;51.956;5.888;2023-12-14T09:26:22;5.50;99.90
37642;DHT22;23486;51.956;5.888;2023-12-14T09:28:48;5.50;99.90
37642;DHT22;23486;51.956;5.888;2023-12-14T09:31:13;5.50;99.90
37642;DHT22;23486;51.956;5.888;2023-12-14T09:33:41;5.50;99.90
37642;DHT22;23486;51.956;5.888;2023-12-14T09:36:07;5.50;99.90
37642;DHT22;23486;51.956;5.888;2023-12-14T09:38:32;5.50;99.90
37642;DHT22;23486;51.956;5.888;2023-12-14T09:40:58;5.50;99.90
37642;DHT22;23486;51.956;5.888;2023-12-14T09:43:23;5.50;99.90
37642;DHT22;23486;51.956;5.888;2023-12-14T09:45:50;5.50;99.90
37642;DHT22;23486;51.956;5.888;2023-12-14T09:48:16;5.60;99.90
37642;DHT22;23486;51.956;5.888;2023-12-14T09:50:41;5.60;99.90
37642;DHT22;23486;51.956;5.888;2023-12-14T09:53:08;5.60;99.90
37642;DHT22;23486;51.956;5.888;2023-12-14T09:55:34;5.60;99.90
37642;DHT22;23486;51.956;5.888;2023-12-14T09:57:59;5.60;99.90
37642;DHT22;23486;51.956;5.888;2023-12-14T10:00:36;5.50;99.90
37642;DHT22;23486;51.956;5.888;2023-12-14T10:03:25;5.50;99.90
37642;DHT22;23486;51.956;5.888;2023-12-14T10:05:52;5.60;99.90
37642;DHT22;23486;51.956;5.888;2023-12-14T10:08:18;5.60;99.90
37642;DHT22;23486;51.956;5.888;2023-12-14T10:10:47;5.60;99.90
37642;DHT22;23486;51.956;5.888;2023-12-14T10:13:36;5.60;99.90
37642;DHT22;23486;51.956;5.888;2023-12-14T10:16:02;5.60;99.90
37642;DHT22;23486;51.956;5.888;2023-12-14T10:18:27;5.60;99.90
37642;DHT22;23486;51.956;5.888;2023-12-14T10:20:54;5.70;99.90
37642;DHT22;23486;51.956;5.888;2023-12-14T10:23:21;5.70;99.90
37642;DHT22;23486;51.956;5.888;2023-12-14T10:25:47;5.70;99.90
37642;DHT22;23486;51.956;5.888;2023-12-14T10:28:15;5.70;99.90
37642;DHT22;23486;51.956;5.888;2023-12-14T10:30:42;5.70;99.90
37642;DHT22;23486;51.956;5.888;2023-12-14T10:33:07;5.70;99.90
37642;DHT22;23486;51.956;5.888;2023-12-14T10:35:33;5.70;99.90
37642;DHT22;23486;51.956;5.888;2023-12-14T10:38:03;5.70;99.90
37642;DHT22;23486;51.956;5.888;2023-12-14T10:40:30;5.80;99.90
37642;DHT22;23486;51.956;5.888;2023-12-14T10:42:58;5.80;99.90
37642;DHT22;23486;51.956;5.888;2023-12-14T10:45:29;5.70;99.90
37642;DHT22;23486;51.956;5.888;2023-12-14T10:47:56;5.80;99.90
37642;DHT22;23486;51.956;5.888;2023-12-14T10:50:23;5.80;99.90
37642;DHT22;23486;51.956;5.888;2023-12-14T10:52:50;5.80;99.90
37642;DHT22;23486;51.956;5.888;2023-12-14T10:55:23;5.80;99.90
37642;DHT22;23486;51.956;5.888;2023-12-14T10:57:52;5.80;99.90
37642;DHT22;23486;51.956;5.888;2023-12-14T11:00:18;5.80;99.90
37642;DHT22;23486;51.956;5.888;2023-12-14T11:02:47;5.80;99.90
37642;DHT22;23486;51.956;5.888;2023-12-14T11:05:15;5.80;99.90
37642;DHT22;23486;51.956;5.888;2023-12-14T11:07:53;5.80;99.90
37642;DHT22;23486;51.956;5.888;2023-12-14T11:10:26;5.80;99.90
37642;DHT22;23486;51.956;5.888;2023-12-14T11:15:22;5.90;99.90
37642;DHT22;23486;51.956;5.888;2023-12-14T11:20:49;6.00;99.90
37642;DHT22;23486;51.956;5.888;2023-12-14T11:25:56;6.00;99.90
37642;DHT22;23486;51.956;5.888;2023-12-14T11:28:22;5.90;99.90
37642;DHT22;23486;51.956;5.888;2023-12-14T11:30:48;5.90;99.90
37642;DHT22;23486;51.956;5.888;2023-12-14T11:33:14;5.90;99.90
37642;DHT22;23486;51.956;5.888;2023-12-14T11:35:41;5.90;99.90
37642;DHT22;23486;51.956;5.888;2023-12-14T11:38:07;6.00;99.90
37642;DHT22;23486;51.956;5.888;2023-12-14T11:40:48;6.00;99.90
37642;DHT22;23486;51.956;5.888;2023-12-14T11:43:14;6.00;99.90
37642;DHT22;23486;51.956;5.888;2023-12-14T11:45:41;6.00;99.90
37642;DHT22;23486;51.956;5.888;2023-12-14T11:48:09;6.00;99.90
37642;DHT22;23486;51.956;5.888;2023-12-14T11:50:39;6.00;99.90
37642;DHT22;23486;51.956;5.888;2023-12-14T11:53:05;6.00;99.90
37642;DHT22;23486;51.956;5.888;2023-12-14T11:55:33;6.00;99.90
37642;DHT22;23486;51.956;5.888;2023-12-14T11:57:59;6.00;99.90
37642;DHT22;23486;51.956;5.888;2023-12-14T12:00:26;6.00;99.90
37642;DHT22;23486;51.956;5.888;2023-12-14T12:03:06;5.90;99.90
37642;DHT22;23486;51.956;5.888;2023-12-14T12:08:05;5.90;99.90
37642;DHT22;23486;51.956;5.888;2023-12-14T12:10:31;5.90;99.90
37642;DHT22;23486;51.956;5.888;2023-12-14T12:13:07;5.90;99.90
37642;DHT22;23486;51.956;5.888;2023-12-14T12:15:34;6.00;99.90
37642;DHT22;23486;51.956;5.888;2023-12-14T12:18:07;6.00;99.90
37642;DHT22;23486;51.956;5.888;2023-12-14T12:20:33;6.00;99.90
37642;DHT22;23486;51.956;5.888;2023-12-14T12:23:00;6.00;99.90
37642;DHT22;23486;51.956;5.888;2023-12-14T12:25:26;6.00;99.90
37642;DHT22;23486;51.956;5.888;2023-12-14T12:27:53;6.10;99.90
37642;DHT22;23486;51.956;5.888;2023-12-14T12:30:20;6.10;99.90
37642;DHT22;23486;51.956;5.888;2023-12-14T12:32:45;6.10;99.90
37642;DHT22;23486;51.956;5.888;2023-12-14T12:35:11;6.10;99.90
37642;DHT22;23486;51.956;5.888;2023-12-14T12:37:36;6.20;99.90
37642;DHT22;23486;51.956;5.888;2023-12-14T12:40:02;6.20;99.90
37642;DHT22;23486;51.956;5.888;2023-12-14T12:42:28;6.20;99.90
37642;DHT22;23486;51.956;5.888;2023-12-14T12:44:54;6.30;99.90
37642;DHT22;23486;51.956;5.888;2023-12-14T12:47:20;6.30;99.90
37642;DHT22;23486;51.956;5.888;2023-12-14T12:49:45;6.30;99.90
37642;DHT22;23486;51.956;5.888;2023-12-14T12:52:11;6.40;99.90
37642;DHT22;23486;51.956;5.888;2023-12-14T12:54:37;6.30;99.90
37642;DHT22;23486;51.956;5.888;2023-12-14T12:57:02;6.40;99.90
37642;DHT22;23486;51.956;5.888;2023-12-14T12:59:28;6.40;99.90
37642;DHT22;23486;51.956;5.888;2023-12-14T13:01:54;6.40;99.90
37642;DHT22;23486;51.956;5.888;2023-12-14T13:04:20;6.40;99.90
37642;DHT22;23486;51.956;5.888;2023-12-14T13:06:47;6.40;99.90
37642;DHT22;23486;51.956;5.888;2023-12-14T13:09:17;6.40;99.90
37642;DHT22;23486;51.956;5.888;2023-12-14T13:11:44;6.30;99.90
37642;DHT22;23486;51.956;5.888;2023-12-14T13:14:10;6.30;99.90
37642;DHT22;23486;51.956;5.888;2023-12-14T13:16:37;6.30;99.90
37642;DHT22;23486;51.956;5.888;2023-12-14T13:19:03;6.30;99.90
37642;DHT22;23486;51.956;5.888;2023-12-14T13:21:38;6.30;99.90
37642;DHT22;23486;51.956;5.888;2023-12-14T13:24:03;6.40;99.90
37642;DHT22;23486;51.956;5.888;2023-12-14T13:26:29;6.30;99.90
37642;DHT22;23486;51.956;5.888;2023-12-14T13:28:55;6.40;99.90
37642;DHT22;23486;51.956;5.888;2023-12-14T13:31:21;6.40;99.90
37642;DHT22;23486;51.956;5.888;2023-12-14T13:33:47;6.30;99.90
37642;DHT22;23486;51.956;5.888;2023-12-14T13:36:14;6.40;99.90
37642;DHT22;23486;51.956;5.888;2023-12-14T13:38:41;6.40;99.90
37642;DHT22;23486;51.956;5.888;2023-12-14T13:41:07;6.40;99.90
37642;DHT22;23486;51.956;5.888;2023-12-14T13:43:33;6.40;99.90
37642;DHT22;23486;51.956;5.888;2023-12-14T13:45:58;6.40;99.90
37642;DHT22;23486;51.956;5.888;2023-12-14T13:48:25;6.30;99.90
37642;DHT22;23486;51.956;5.888;2023-12-14T13:50:51;6.30;99.90
37642;DHT22;23486;51.956;5.888;2023-12-14T13:53:17;6.30;99.90
37642;DHT22;23486;51.956;5.888;2023-12-14T13:55:42;6.30;99.90
37642;DHT22;23486;51.956;5.888;2023-12-14T13:58:08;6.20;99.90
37642;DHT22;23486;51.956;5.888;2023-12-14T14:00:34;6.20;99.90
37642;DHT22;23486;51.956;5.888;2023-12-14T14:03:00;6.20;99.90
37642;DHT22;23486;51.956;5.888;2023-12-14T14:05:26;6.20;99.90
37642;DHT22;23486;51.956;5.888;2023-12-14T14:07:52;6.30;99.90
37642;DHT22;23486;51.956;5.888;2023-12-14T14:10:19;6.30;99.90
37642;DHT22;23486;51.956;5.888;2023-12-14T14:12:45;6.30;99.90
37642;DHT22;23486;51.956;5.888;2023-12-14T14:15:10;6.30;99.90
37642;DHT22;23486;51.956;5.888;2023-12-14T14:17:36;6.30;99.90
37642;DHT22;23486;51.956;5.888;2023-12-14T14:20:02;6.30;99.90
37642;DHT22;23486;51.956;5.888;2023-12-14T14:22:28;6.40;99.90
37642;DHT22;23486;51.956;5.888;2023-12-14T14:24:54;6.40;99.90
37642;DHT22;23486;51.956;5.888;2023-12-14T14:27:19;6.40;99.90
37642;DHT22;23486;51.956;5.888;2023-12-14T14:29:45;6.50;99.90
37642;DHT22;23486;51.956;5.888;2023-12-14T14:32:10;6.50;99.90
37642;DHT22;23486;51.956;5.888;2023-12-14T14:34:36;6.50;99.90
37642;DHT22;23486;51.956;5.888;2023-12-14T14:37:04;6.60;99.90
37642;DHT22;23486;51.956;5.888;2023-12-14T14:39:30;6.60;99.90
37642;DHT22;23486;51.956;5.888;2023-12-14T14:41:56;6.60;99.90
37642;DHT22;23486;51.956;5.888;2023-12-14T14:44:22;6.60;99.90
37642;DHT22;23486;51.956;5.888;2023-12-14T14:46:47;6.60;99.90
37642;DHT22;23486;51.956;5.888;2023-12-14T14:49:13;6.60;99.90
37642;DHT22;23486;51.956;5.888;2023-12-14T14:51:38;6.50;99.90
37642;DHT22;23486;51.956;5.888;2023-12-14T14:54:04;6.50;99.90
37642;DHT22;23486;51.956;5.888;2023-12-14T14:56:29;6.40;99.90
37642;DHT22;23486;51.956;5.888;2023-12-14T14:58:55;6.40;99.90
37642;DHT22;23486;51.956;5.888;2023-12-14T15:01:21;6.30;99.90
37642;DHT22;23486;51.956;5.888;2023-12-14T15:03:46;6.20;99.90
37642;DHT22;23486;51.956;5.888;2023-12-14T15:06:12;6.20;99.90
37642;DHT22;23486;51.956;5.888;2023-12-14T15:08:37;6.20;99.90
37642;DHT22;23486;51.956;5.888;2023-12-14T15:11:03;6.20;99.90
37642;DHT22;23486;51.956;5.888;2023-12-14T15:13:31;6.20;99.90
37642;DHT22;23486;51.956;5.888;2023-12-14T15:15:57;6.20;99.90
37642;DHT22;23486;51.956;5.888;2023-12-14T15:18:22;6.20;99.90
37642;DHT22;23486;51.956;5.888;2023-12-14T15:20:48;6.20;99.90
37642;DHT22;23486;51.956;5.888;2023-12-14T15:23:14;6.20;99.90
37642;DHT22;23486;51.956;5.888;2023-12-14T15:25:40;6.20;99.90
37642;DHT22;23486;51.956;5.888;2023-12-14T15:28:06;6.20;99.90
37642;DHT22;23486;51.956;5.888;2023-12-14T15:30:31;6.20;99.90
37642;DHT22;23486;51.956;5.888;2023-12-14T15:32:57;6.20;99.90
37642;DHT22;23486;51.956;5.888;2023-12-14T15:35:23;6.20;99.90
37642;DHT22;23486;51.956;5.888;2023-12-14T15:37:48;6.20;99.90
37642;DHT22;23486;51.956;5.888;2023-12-14T15:40:14;6.20;99.90
37642;DHT22;23486;51.956;5.888;2023-12-14T15:42:40;6.20;99.90
37642;DHT22;23486;51.956;5.888;2023-12-14T15:45:06;6.20;99.90
37642;DHT22;23486;51.956;5.888;2023-12-14T15:47:32;6.20;99.90
37642;DHT22;23486;51.956;5.888;2023-12-14T15:49:58;6.20;99.90